createdAt,value
2023-03-02T00:01:02.745Z,104.50
2023-03-02T00:04:10.699Z,68.60
2023-03-02T00:07:19.528Z,65.27
2023-03-02T00:10:23.217Z,68.57
2023-03-02T00:13:30.131Z,65.13
2023-03-02T00:16:34.225Z,112.17
2023-03-02T00:19:38.197Z,107.27
2023-03-02T00:22:43.916Z,150.47
2023-03-02T00:25:47.639Z,103.17
2023-03-02T00:28:52.905Z,99.67
2023-03-02T00:31:56.620Z,95.40
2023-03-02T00:35:00.340Z,89.93
2023-03-02T00:38:03.965Z,86.00
2023-03-02T00:41:07.613Z,125.30
2023-03-02T00:44:17.604Z,173.40
2023-03-02T00:47:21.680Z,95.70
2023-03-02T00:50:25.318Z,129.67
2023-03-02T00:53:29.038Z,81.00
2023-03-02T00:56:33.060Z,86.53
2023-03-02T00:59:39.660Z,59.23
2023-03-02T01:02:44.351Z,99.47
2023-03-02T01:05:48.852Z,153.73
2023-03-02T01:08:52.475Z,128.30
2023-03-02T01:11:56.327Z,105.40
2023-03-02T01:15:01.462Z,102.90
2023-03-02T01:18:05.417Z,87.70
2023-03-02T01:21:13.890Z,83.43
2023-03-02T01:24:17.793Z,73.03
2023-03-02T01:27:22.284Z,50.93
2023-03-02T01:30:27.405Z,70.20
2023-03-02T01:33:31.421Z,93.17
2023-03-02T01:36:35.364Z,53.57
2023-03-02T01:39:39.256Z,148.40
2023-03-02T01:42:53.842Z,95.77
2023-03-02T01:46:02.885Z,56.73
2023-03-02T01:49:14.148Z,78.77
2023-03-02T01:52:19.634Z,149.57
2023-03-02T01:55:30.677Z,139.03
2023-03-02T01:58:38.474Z,119.00
2023-03-02T02:01:46.793Z,120.93
2023-03-02T02:04:51.382Z,88.67
2023-03-02T02:07:55.165Z,95.87
2023-03-02T02:10:59.695Z,91.63
2023-03-02T02:14:04.774Z,61.87
2023-03-02T02:17:11.100Z,55.60
2023-03-02T02:20:29.692Z,76.13
2023-03-02T02:23:44.097Z,86.57
2023-03-02T02:26:53.246Z,72.57
2023-03-02T02:29:59.898Z,82.10
2023-03-02T02:33:06.213Z,69.63
2023-03-02T02:36:17.455Z,71.47
2023-03-02T02:39:29.669Z,50.60
2023-03-02T02:42:40.899Z,70.67
2023-03-02T02:45:46.047Z,46.90
2023-03-02T02:48:49.848Z,43.73
2023-03-02T02:51:53.822Z,47.53
2023-03-02T02:55:00.194Z,73.30
2023-03-02T02:58:22.150Z,94.67
2023-03-02T03:01:27.089Z,73.80
2023-03-02T03:04:33.860Z,59.03
2023-03-02T03:07:37.606Z,60.63
2023-03-02T03:10:44.473Z,70.10
2023-03-02T03:13:50.992Z,69.97
2023-03-02T03:16:55.009Z,50.80
2023-03-02T03:20:06.128Z,53.80
2023-03-02T03:23:09.788Z,69.53
2023-03-02T03:26:13.712Z,60.47
2023-03-02T03:29:20.293Z,84.47
2023-03-02T03:32:25.184Z,44.33
2023-03-02T03:35:28.889Z,103.07
2023-03-02T03:38:32.671Z,43.73
2023-03-02T03:41:36.297Z,66.40
2023-03-02T03:44:41.370Z,54.57
2023-03-02T03:47:45.030Z,45.90
2023-03-02T03:50:48.866Z,66.17
2023-03-02T03:54:01.384Z,51.97
2023-03-02T03:57:05.265Z,64.30
2023-03-02T04:00:16.268Z,91.57
2023-03-02T04:03:20.991Z,48.73
2023-03-02T04:06:24.637Z,67.90
2023-03-02T04:09:29.391Z,102.03
2023-03-02T04:12:34.206Z,86.17
2023-03-02T04:15:42.338Z,66.93
2023-03-02T04:18:45.983Z,67.57
2023-03-02T04:21:53.006Z,69.70
2023-03-02T04:24:56.653Z,85.20
2023-03-02T04:28:00.404Z,47.90
2023-03-02T04:31:06.007Z,64.00
2023-03-02T04:34:10.433Z,51.23
2023-03-02T04:37:15.974Z,66.03
2023-03-02T04:40:19.661Z,97.93
2023-03-02T04:43:23.867Z,71.07
2023-03-02T04:46:30.046Z,57.17
2023-03-02T04:49:33.865Z,81.50
2023-03-02T04:52:37.897Z,63.53
2023-03-02T04:55:41.848Z,85.40
2023-03-02T04:58:45.593Z,62.67
2023-03-02T05:01:51.618Z,60.07
2023-03-02T05:04:55.483Z,48.57
2023-03-02T05:07:59.448Z,69.83
2023-03-02T05:11:03.996Z,60.53
2023-03-02T05:14:12.637Z,60.57
2023-03-02T05:17:17.962Z,64.23
2023-03-02T05:20:27.478Z,46.17
2023-03-02T05:23:31.737Z,60.50
2023-03-02T05:26:35.786Z,62.63
2023-03-02T05:29:39.550Z,47.37
2023-03-02T05:32:44.591Z,76.67
2023-03-02T05:35:49.827Z,59.10
2023-03-02T05:38:53.665Z,93.87
2023-03-02T05:41:57.342Z,52.00
2023-03-02T05:45:01.036Z,63.70
2023-03-02T05:48:07.673Z,136.67
2023-03-02T05:51:11.330Z,71.23
2023-03-02T05:54:16.002Z,72.00
2023-03-02T05:57:19.781Z,56.13
2023-03-02T06:00:24.876Z,62.97
2023-03-02T06:03:30.147Z,52.07
2023-03-02T06:06:34.305Z,53.43
2023-03-02T06:09:39.477Z,61.40
2023-03-02T06:12:43.338Z,109.53
2023-03-02T06:15:47.189Z,59.33
2023-03-02T06:18:52.288Z,59.57
2023-03-02T06:21:55.956Z,63.53
2023-03-02T06:24:59.639Z,35.20
2023-03-02T06:28:03.273Z,45.40
2023-03-02T06:31:07.260Z,83.67
2023-03-02T06:34:12.204Z,60.53
2023-03-02T06:37:16.011Z,53.67
2023-03-02T06:40:21.649Z,44.90
2023-03-02T06:43:25.263Z,50.47
2023-03-02T06:46:28.890Z,40.70
2023-03-02T06:49:34.006Z,78.73
2023-03-02T06:52:37.803Z,40.87
2023-03-02T06:55:41.549Z,69.60
2023-03-02T06:58:45.391Z,55.50
2023-03-02T07:01:50.644Z,54.10
2023-03-02T07:04:55.851Z,52.87
2023-03-02T07:07:59.841Z,52.37
2023-03-02T07:11:07.640Z,70.47
2023-03-02T07:14:11.414Z,43.20
2023-03-02T07:17:15.160Z,33.97
2023-03-02T07:20:20.877Z,37.73
2023-03-02T07:23:24.640Z,55.03
2023-03-02T07:26:28.245Z,49.80
2023-03-02T07:29:32.105Z,48.73
2023-03-02T07:32:36.035Z,64.10
2023-03-02T07:35:41.321Z,40.27
2023-03-02T07:38:45.069Z,55.57
2023-03-02T07:41:48.971Z,57.20
2023-03-02T07:44:54.861Z,45.33
2023-03-02T07:47:58.666Z,71.50
2023-03-02T07:51:06.425Z,47.70
2023-03-02T07:54:11.127Z,39.50
2023-03-02T07:57:16.317Z,36.27
2023-03-02T08:00:21.946Z,43.03
2023-03-02T08:03:25.766Z,32.97
2023-03-02T08:06:31.847Z,37.40
2023-03-02T08:09:35.994Z,57.13
2023-03-02T08:12:39.662Z,42.40
2023-03-02T08:15:43.274Z,106.67
2023-03-02T08:18:47.020Z,46.73
2023-03-02T08:21:51.974Z,55.37
2023-03-02T08:24:55.742Z,68.60
2023-03-02T08:27:59.298Z,56.17
2023-03-02T08:31:05.227Z,60.23
2023-03-02T08:34:09.087Z,78.97
2023-03-02T08:37:14.045Z,56.90
2023-03-02T08:40:17.856Z,63.27
2023-03-02T08:43:22.916Z,45.70
2023-03-02T08:46:26.480Z,54.50
2023-03-02T08:49:30.260Z,83.20
2023-03-02T08:52:36.308Z,122.00
2023-03-02T08:55:39.922Z,82.03
2023-03-02T08:58:43.537Z,42.63
2023-03-02T09:01:47.241Z,61.27
2023-03-02T09:04:50.919Z,61.73
2023-03-02T09:07:56.087Z,39.33
2023-03-02T09:10:59.701Z,64.57
2023-03-02T09:14:03.422Z,82.33
2023-03-02T09:17:07.041Z,79.70
2023-03-02T09:20:12.533Z,99.60
2023-03-02T09:23:17.631Z,68.93
2023-03-02T09:26:21.464Z,76.13
2023-03-02T09:29:25.154Z,82.27
2023-03-02T09:32:29.135Z,45.53
2023-03-02T09:35:32.845Z,46.73
2023-03-02T09:38:38.134Z,43.30
2023-03-02T09:42:19.897Z,51.03
2023-03-02T09:45:40.906Z,98.73
2023-03-02T09:48:56.993Z,36.17
2023-03-02T09:52:19.311Z,32.23
2023-03-02T09:55:29.731Z,86.33
2023-03-02T09:58:39.603Z,66.67
2023-03-02T10:01:50.459Z,37.17
2023-03-02T10:04:58.415Z,31.83
2023-03-02T10:08:02.474Z,44.47
2023-03-02T10:11:20.358Z,30.17
2023-03-02T10:14:32.074Z,28.87
2023-03-02T10:17:53.083Z,32.63
2023-03-02T10:21:04.043Z,38.13
2023-03-02T10:24:25.660Z,32.97
2023-03-02T10:27:40.154Z,27.07
2023-03-02T10:30:46.995Z,30.47
2023-03-02T10:33:51.192Z,32.40
2023-03-02T10:36:54.863Z,43.77
2023-03-02T10:39:59.115Z,30.10
2023-03-02T10:43:07.256Z,25.00
2023-03-02T10:46:14.219Z,23.20
2023-03-02T10:49:32.102Z,27.77
2023-03-02T10:52:36.213Z,30.87
2023-03-02T10:55:47.879Z,25.30
2023-03-02T10:58:54.606Z,25.13
2023-03-02T11:02:04.418Z,24.40
2023-03-02T11:05:31.045Z,22.97
2023-03-02T11:08:34.804Z,25.30
2023-03-02T11:11:38.585Z,23.80
2023-03-02T11:14:43.945Z,23.83
2023-03-02T11:17:52.026Z,25.30
2023-03-02T11:21:03.219Z,26.97
2023-03-02T11:24:15.302Z,21.67
2023-03-02T11:27:24.808Z,18.97
2023-03-02T11:30:35.445Z,21.63
2023-03-02T11:33:52.236Z,20.60
2023-03-02T11:37:16.517Z,20.93
2023-03-02T11:40:27.309Z,20.10
2023-03-02T11:43:31.366Z,20.20
2023-03-02T11:46:37.006Z,23.00
2023-03-02T11:49:48.342Z,19.63
2023-03-02T11:52:58.438Z,19.07
2023-03-02T11:56:02.054Z,22.17
2023-03-02T11:59:14.502Z,19.47
2023-03-02T12:02:21.222Z,19.47
2023-03-02T12:05:30.774Z,20.17
2023-03-02T12:08:40.660Z,16.03
2023-03-02T12:11:47.650Z,24.17
2023-03-02T12:14:52.533Z,20.67
2023-03-02T12:17:57.779Z,19.07
2023-03-02T12:21:11.915Z,22.43
2023-03-02T12:24:28.049Z,20.13
2023-03-02T12:27:38.992Z,24.13
2023-03-02T12:30:42.780Z,19.13
2023-03-02T12:33:52.700Z,22.03
2023-03-02T12:37:00.987Z,20.03
2023-03-02T12:40:39.418Z,22.83
2023-03-02T12:43:56.506Z,23.17
2023-03-02T12:47:03.024Z,18.80
2023-03-02T12:50:22.082Z,23.00
2023-03-02T12:53:25.766Z,17.80
2023-03-02T12:56:29.632Z,16.97
2023-03-02T12:59:34.085Z,20.87
2023-03-02T13:02:38.321Z,20.07
2023-03-02T13:05:43.569Z,19.40
2023-03-02T13:08:51.511Z,17.87
2023-03-02T13:11:55.773Z,18.03
2023-03-02T13:15:01.304Z,21.40
2023-03-02T13:18:05.250Z,18.10
2023-03-02T13:21:16.087Z,20.27
2023-03-02T13:24:33.413Z,18.77
2023-03-02T13:27:37.122Z,19.17
2023-03-02T13:30:47.896Z,18.20
2023-03-02T13:33:58.015Z,20.57
2023-03-02T13:37:03.147Z,21.93
2023-03-02T13:40:25.146Z,20.37
2023-03-02T13:43:40.544Z,24.03
2023-03-02T13:46:44.124Z,22.73
2023-03-02T13:49:47.841Z,19.87
2023-03-02T13:52:56.527Z,18.90
2023-03-02T13:56:01.571Z,19.47
2023-03-02T13:59:06.782Z,17.80
2023-03-02T14:02:25.159Z,23.60
2023-03-02T14:05:33.373Z,22.80
2023-03-02T14:08:38.578Z,22.37
2023-03-02T14:11:46.630Z,23.00
2023-03-02T14:14:51.029Z,22.70
2023-03-02T14:17:54.722Z,19.83
2023-03-02T14:20:59.127Z,21.07
2023-03-02T14:24:04.451Z,24.13
2023-03-02T14:27:10.750Z,22.03
2023-03-02T14:30:18.840Z,21.83
2023-03-02T14:33:23.954Z,22.60
2023-03-02T14:36:33.118Z,23.20
2023-03-02T14:39:41.150Z,21.63
2023-03-02T14:42:44.854Z,25.10
2023-03-02T14:45:48.641Z,23.90
2023-03-02T14:48:52.289Z,23.60
2023-03-02T14:52:02.430Z,23.83
2023-03-02T14:55:18.390Z,27.00
2023-03-02T14:58:32.298Z,25.43
2023-03-02T15:01:36.092Z,25.40
2023-03-02T15:04:40.140Z,28.10
2023-03-02T15:07:44.146Z,26.23
2023-03-02T15:10:50.450Z,23.40
2023-03-02T15:13:54.422Z,25.73
2023-03-02T15:16:58.086Z,23.17
2023-03-02T15:20:01.695Z,27.53
2023-03-02T15:23:05.728Z,24.67
2023-03-02T15:26:12.445Z,24.43
2023-03-02T15:29:16.226Z,25.87
2023-03-02T15:32:19.995Z,30.07
2023-03-02T15:35:23.720Z,26.17
2023-03-02T15:38:27.754Z,27.40
2023-03-02T15:41:33.015Z,31.07
2023-03-02T15:44:36.882Z,28.93
2023-03-02T15:47:40.490Z,28.77
2023-03-02T15:50:44.170Z,34.57
2023-03-02T15:53:48.864Z,31.17
2023-03-02T15:56:54.146Z,34.57
2023-03-02T15:59:57.754Z,33.50
2023-03-02T16:03:01.641Z,34.37
2023-03-02T16:06:05.980Z,35.33
2023-03-02T16:09:09.883Z,33.60
2023-03-02T16:12:14.857Z,32.23
2023-03-02T16:15:18.747Z,32.03
2023-03-02T16:18:22.492Z,31.60
2023-03-02T16:21:29.251Z,37.87
2023-03-02T16:24:33.140Z,31.00
2023-03-02T16:27:38.206Z,36.83
2023-03-02T16:30:44.872Z,37.57
2023-03-02T16:33:51.516Z,38.03
2023-03-02T16:36:55.163Z,38.10
2023-03-02T16:39:58.823Z,41.10
2023-03-02T16:43:06.260Z,38.83
2023-03-02T16:46:09.953Z,42.03
2023-03-02T16:49:15.242Z,41.27
2023-03-02T16:52:18.917Z,40.77
2023-03-02T16:55:22.618Z,48.63
2023-03-02T16:58:27.615Z,46.43
2023-03-02T17:01:31.414Z,43.60
2023-03-02T17:04:37.257Z,47.47
2023-03-02T17:07:41.079Z,45.00
2023-03-02T17:10:45.789Z,41.30
2023-03-02T17:13:50.743Z,47.70
2023-03-02T17:16:54.790Z,44.77
2023-03-02T17:19:58.368Z,43.43
2023-03-02T17:23:02.895Z,35.83
2023-03-02T17:26:06.894Z,43.33
2023-03-02T17:29:11.996Z,42.83
2023-03-02T17:32:15.677Z,35.67
2023-03-02T17:35:19.587Z,36.87
2023-03-02T17:38:23.236Z,37.23
2023-03-02T17:41:27.017Z,32.37
2023-03-02T17:44:34.521Z,34.80
2023-03-02T17:47:38.199Z,40.80
2023-03-02T17:50:42.012Z,40.53
2023-03-02T17:53:48.006Z,38.03
2023-03-02T17:56:51.617Z,39.37
2023-03-02T17:59:57.500Z,39.03
2023-03-02T18:03:01.205Z,37.90
2023-03-02T18:06:05.289Z,38.47
2023-03-02T18:09:09.029Z,37.77
2023-03-02T18:12:12.721Z,31.70
2023-03-02T18:15:17.997Z,32.60
2023-03-02T18:18:21.830Z,36.33
2023-03-02T18:21:25.509Z,34.83
2023-03-02T18:24:29.325Z,41.43
2023-03-02T18:27:33.493Z,33.70
2023-03-02T18:30:38.928Z,35.17
2023-03-02T18:33:42.641Z,35.13
2023-03-02T18:36:46.427Z,37.00
2023-03-02T18:39:50.165Z,34.50
2023-03-02T18:42:54.154Z,35.50
2023-03-02T18:45:59.632Z,34.47
2023-03-02T18:49:04.551Z,33.57
2023-03-02T18:52:09.904Z,34.63
2023-03-02T18:55:13.931Z,32.07
2023-03-02T18:58:20.818Z,31.97
2023-03-02T19:01:25.842Z,33.40
2023-03-02T19:04:30.844Z,32.20
2023-03-02T19:07:34.648Z,29.37
2023-03-02T19:10:42.447Z,31.93
2023-03-02T19:13:46.195Z,34.97
2023-03-02T19:16:51.815Z,30.60
2023-03-02T19:19:55.448Z,29.80
2023-03-02T19:22:59.061Z,33.73
2023-03-02T19:26:05.390Z,31.13
2023-03-02T19:29:09.279Z,34.57
2023-03-02T19:32:15.230Z,31.53
2023-03-02T19:35:19.483Z,29.83
2023-03-02T19:38:24.051Z,28.87
2023-03-02T19:41:32.369Z,25.03
2023-03-02T19:44:37.302Z,29.30
2023-03-02T19:47:43.125Z,25.37
2023-03-02T19:50:47.056Z,29.03
2023-03-02T19:53:51.511Z,24.37
2023-03-02T19:56:57.106Z,25.33
2023-03-02T20:00:00.819Z,24.27
2023-03-02T20:03:08.517Z,24.83
2023-03-02T20:06:12.233Z,26.27
2023-03-02T20:09:19.850Z,27.90
2023-03-02T20:12:23.583Z,20.27
2023-03-02T20:15:28.760Z,21.70
2023-03-02T20:18:35.101Z,20.60
2023-03-02T20:21:39.061Z,18.67
2023-03-02T20:24:44.221Z,24.67
2023-03-02T20:27:49.109Z,23.87
2023-03-02T20:30:58.433Z,24.27
2023-03-02T20:34:07.856Z,23.80
2023-03-02T20:37:14.779Z,24.03
2023-03-02T20:40:20.333Z,27.73
2023-03-02T20:43:24.218Z,25.40
2023-03-02T20:46:33.748Z,22.67
2023-03-02T20:49:40.155Z,21.93
2023-03-02T20:52:43.981Z,25.57
2023-03-02T20:55:48.011Z,26.60
2023-03-02T20:58:51.999Z,21.80
2023-03-02T21:01:55.852Z,24.60
2023-03-02T21:05:01.016Z,24.30
2023-03-02T21:08:05.147Z,24.20
2023-03-02T21:11:10.946Z,21.83
2023-03-02T21:14:15.199Z,23.07
2023-03-02T21:17:18.899Z,25.63
2023-03-02T21:20:27.410Z,22.57
2023-03-02T21:23:31.401Z,23.50
2023-03-02T21:26:36.620Z,26.73
2023-03-02T21:29:40.442Z,23.83
2023-03-02T21:32:45.709Z,23.37
2023-03-02T21:35:50.702Z,22.00
2023-03-02T21:38:54.664Z,23.90
2023-03-02T21:41:58.738Z,28.63
2023-03-02T21:45:02.991Z,23.00
2023-03-02T21:48:08.164Z,27.97
2023-03-02T21:51:15.130Z,19.90
2023-03-02T21:54:18.854Z,25.70
2023-03-02T21:57:22.552Z,24.07
2023-03-02T22:00:29.637Z,24.37
2023-03-02T22:03:33.337Z,21.97
2023-03-02T22:06:38.750Z,20.83
2023-03-02T22:09:42.455Z,22.90
2023-03-02T22:12:46.293Z,27.70
2023-03-02T22:15:52.446Z,23.63
2023-03-02T22:18:59.632Z,26.90
2023-03-02T22:22:17.843Z,25.40
2023-03-02T22:25:21.746Z,27.93
2023-03-02T22:28:28.253Z,23.43
2023-03-02T22:31:32.536Z,23.30
2023-03-02T22:34:38.244Z,28.73
2023-03-02T22:37:43.161Z,27.40
2023-03-02T22:40:46.970Z,24.47
2023-03-02T22:43:53.000Z,21.97
2023-03-02T22:46:58.475Z,23.97
2023-03-02T22:50:21.680Z,25.03
2023-03-02T22:53:31.487Z,24.10
2023-03-02T22:56:38.371Z,26.47
2023-03-02T22:59:42.050Z,28.10
2023-03-02T23:02:47.397Z,28.77
2023-03-02T23:05:53.675Z,27.87
2023-03-02T23:09:02.214Z,25.00
2023-03-02T23:12:17.869Z,26.60
2023-03-02T23:15:22.684Z,26.20
2023-03-02T23:18:29.661Z,28.17
2023-03-02T23:21:41.561Z,28.33
2023-03-02T23:24:46.772Z,31.73
2023-03-02T23:27:50.380Z,30.60
2023-03-02T23:30:53.920Z,27.00
2023-03-02T23:33:57.707Z,26.20
2023-03-02T23:37:01.943Z,26.07
2023-03-02T23:40:09.056Z,29.83
2023-03-02T23:43:12.610Z,32.17
2023-03-02T23:46:16.523Z,28.13
2023-03-02T23:49:20.574Z,30.73
2023-03-02T23:52:24.213Z,33.33
2023-03-02T23:55:29.427Z,31.97
2023-03-02T23:58:33.300Z,33.67
